Time;durP1;ratioP1;P1;durP2;ratioP2;P2;SDS_P1;SDS_P2;PMS_P1;PMS_P2;Temp;Humidity;BMP_temperature;BMP_pressure;BME280_temperature;BME280_humidity;BME280_pressure;Samples;Min_cycle;Max_cycle;Signal;HPM_P1;HPM_P2
2022/04/22 00:01:30;;;;;;;8.00;1.40;;;8.30;67.20;;;;;;4100625;28;20034;-88
2022/04/22 00:03:30;;;;;;;2.83;0.90;;;8.20;67.00;;;;;;4087029;28;20042;-88
2022/04/22 00:05:31;;;;;;;1.63;0.95;;;8.30;66.80;;;;;;4093689;28;20394;-88
2022/04/22 00:07:32;;;;;;;5.40;1.20;;;8.20;66.10;;;;;;4087546;28;20035;-89
2022/04/22 00:09:33;;;;;;;6.68;1.65;;;8.20;65.80;;;;;;4094812;28;20102;-89
2022/04/22 00:11:33;;;;;;;9.23;1.50;;;8.10;65.10;;;;;;4086432;28;20068;-88
2022/04/22 00:13:34;;;;;;;7.18;2.25;;;8.10;64.80;;;;;;4104366;28;20041;-88
2022/04/22 00:15:35;;;;;;;4.15;1.50;;;8.20;64.60;;;;;;4092410;28;20484;-88
2022/04/22 00:17:35;;;;;;;2.92;1.45;;;8.10;63.90;;;;;;4089245;28;20107;-87
2022/04/22 00:19:36;;;;;;;6.88;1.85;;;8.20;63.60;;;;;;4089150;28;20027;-88
2022/04/22 00:21:37;;;;;;;5.32;1.92;;;8.30;63.40;;;;;;4085748;28;20435;-88
2022/04/22 00:23:37;;;;;;;9.30;1.75;;;8.20;63.20;;;;;;4092596;28;20042;-88
2022/04/22 00:25:38;;;;;;;5.22;1.90;;;8.20;63.20;;;;;;4087121;28;20035;-89
2022/04/22 00:27:39;;;;;;;6.43;1.55;;;8.30;63.40;;;;;;4105934;28;20030;-87
2022/04/22 00:29:40;;;;;;;4.40;1.50;;;8.20;63.50;;;;;;4103355;28;20016;-89
2022/04/22 00:31:40;;;;;;;3.92;1.48;;;8.20;63.90;;;;;;4079043;28;20035;-90
2022/04/22 00:33:44;;;;;;;3.17;1.50;;;8.30;64.00;;;;;;4091483;28;20039;-89
2022/04/22 00:35:45;;;;;;;16.30;1.70;;;8.30;64.20;;;;;;4089703;28;20034;-89
2022/04/22 00:37:47;;;;;;;5.45;1.38;;;8.30;64.30;;;;;;4088933;28;20119;-89
2022/04/22 00:39:48;;;;;;;11.43;2.95;;;8.30;64.60;;;;;;4094532;28;20106;-88
2022/04/22 00:41:48;;;;;;;7.75;1.77;;;8.40;64.80;;;;;;4094055;28;20412;-88
2022/04/22 00:43:50;;;;;;;6.13;1.58;;;8.40;64.60;;;;;;4094924;28;20035;-88
2022/04/22 00:45:53;;;;;;;6.32;1.30;;;8.50;65.00;;;;;;4087734;28;20031;-88
2022/04/22 00:47:54;;;;;;;;;;;8.40;65.00;;;;;;4105603;28;20090;-87
2022/04/22 00:49:56;;;;;;;6.20;1.75;;;8.40;65.20;;;;;;4095410;28;19969;-88
2022/04/22 00:51:56;;;;;;;3.10;1.52;;;8.50;65.30;;;;;;4103377;28;20037;-89
2022/04/22 00:53:57;;;;;;;3.38;1.27;;;8.50;65.40;;;;;;4105235;28;20487;-88
2022/04/22 00:55:58;;;;;;;10.02;1.60;;;8.50;65.70;;;;;;4089060;28;20403;-89
2022/04/22 00:57:59;;;;;;;6.78;1.52;;;8.40;65.70;;;;;;4106978;28;20022;-89
2022/04/22 01:00:01;;;;;;;6.35;1.70;;;8.50;65.50;;;;;;4095629;28;20503;-88
2022/04/22 01:02:01;;;;;;;6.97;1.70;;;8.50;65.60;;;;;;4083065;28;20189;-89
2022/04/22 01:09:47;;;;;;;6.28;1.80;;;8.40;65.80;;;;;;4091076;28;20039;-88
2022/04/22 01:11:01;;;;;;;3.80;1.58;;;8.40;66.20;;;;;;4088964;28;20042;-89
2022/04/22 01:13:02;;;;;;;3.00;1.42;;;8.40;66.40;;;;;;4087288;28;20480;-87
2022/04/22 01:15:03;;;;;;;8.77;2.00;;;8.40;66.40;;;;;;4092999;28;20026;-88
2022/04/22 01:17:04;;;;;;;10.93;1.75;;;8.40;66.30;;;;;;4093590;28;20031;-87
2022/04/22 01:19:05;;;;;;;13.30;2.00;;;8.40;66.30;;;;;;4074406;29;20032;-87
2022/04/22 01:21:06;;;;;;;5.22;1.52;;;8.30;66.50;;;;;;4090149;28;20102;-88
2022/04/22 01:23:07;;;;;;;7.80;1.75;;;8.40;66.50;;;;;;4103739;28;20109;-87
2022/04/22 01:25:07;;;;;;;6.30;1.80;;;8.40;66.50;;;;;;4084895;28;20055;-87
2022/04/22 01:27:10;;;;;;;5.78;1.50;;;8.30;66.90;;;;;;4092107;28;20151;-88
2022/04/22 01:29:13;;;;;;;4.50;1.50;;;8.40;67.10;;;;;;4106893;28;20030;-88
2022/04/22 01:31:15;;;;;;;6.38;2.00;;;8.40;67.00;;;;;;4092328;28;20031;-88
2022/04/22 01:33:16;;;;;;;5.15;1.83;;;8.30;66.90;;;;;;4097100;28;20463;-88
2022/04/22 01:35:17;;;;;;;7.63;2.13;;;8.30;67.30;;;;;;4091540;28;20107;-88
2022/04/22 01:37:18;;;;;;;7.25;1.90;;;8.30;67.50;;;;;;4105023;28;20031;-88
2022/04/22 01:39:19;;;;;;;4.78;1.80;;;8.30;67.40;;;;;;4088786;28;23051;-88
2022/04/22 01:41:21;;;;;;;6.40;1.77;;;8.20;67.90;;;;;;4091790;28;20773;-88
2022/04/22 01:43:22;;;;;;;7.70;1.65;;;8.20;67.90;;;;;;4080707;28;20508;-87
2022/04/22 01:45:22;;;;;;;7.28;2.08;;;8.20;68.10;;;;;;4091349;28;20045;-88
2022/04/22 01:47:23;;;;;;;3.58;1.85;;;8.20;68.00;;;;;;4105836;28;20085;-87
2022/04/22 01:49:24;;;;;;;4.20;1.65;;;8.20;68.30;;;;;;4087978;28;20067;-88
2022/04/22 01:51:24;;;;;;;4.15;1.80;;;8.20;68.30;;;;;;4095225;28;20036;-87
2022/04/22 01:53:25;;;;;;;6.22;1.67;;;8.20;68.20;;;;;;4086234;28;20054;-87
2022/04/22 01:55:28;;;;;;;4.28;2.28;;;8.10;68.20;;;;;;4092357;28;20035;-87
2022/04/22 01:57:29;;;;;;;;;;;8.10;68.40;;;;;;4091175;28;20029;-87
2022/04/22 01:59:29;;;;;;;4.13;1.77;;;8.10;68.40;;;;;;4091745;28;20711;-87
2022/04/22 02:01:30;;;;;;;6.03;1.83;;;8.10;67.70;;;;;;4086295;28;20042;-87
2022/04/22 02:03:31;;;;;;;6.63;2.50;;;8.10;67.60;;;;;;4104611;28;20037;-87
2022/04/22 02:05:33;;;;;;;5.78;2.03;;;8.10;67.50;;;;;;4100223;28;20031;-86
2022/04/22 02:07:34;;;;;;;7.82;2.08;;;8.10;67.50;;;;;;4102934;28;20031;-87
2022/04/22 02:09:35;;;;;;;5.30;1.98;;;8.10;67.70;;;;;;4115290;28;20777;-87
2022/04/22 02:11:36;;;;;;;6.78;1.98;;;8.20;67.80;;;;;;4101182;28;20407;-88
2022/04/22 02:13:36;;;;;;;6.97;1.98;;;8.00;67.50;;;;;;4106086;28;20030;-87
2022/04/22 02:15:37;;;;;;;7.22;1.73;;;8.00;67.60;;;;;;4090603;28;20031;-87
2022/04/22 02:17:38;;;;;;;6.47;2.20;;;8.10;67.30;;;;;;4084796;28;20045;-87
2022/04/22 02:19:40;;;;;;;6.63;2.60;;;8.00;67.20;;;;;;4085466;28;20023;-87
2022/04/22 02:21:41;;;;;;;6.78;2.00;;;7.90;67.60;;;;;;4102053;28;20157;-87
2022/04/22 02:23:42;;;;;;;3.90;1.90;;;8.00;67.70;;;;;;4089211;28;20035;-88
2022/04/22 02:25:42;;;;;;;5.05;1.65;;;8.00;67.90;;;;;;4090383;28;20064;-88
2022/04/22 02:30:03;;;;;;;8.63;2.25;;;7.80;67.80;;;;;;4094184;28;20118;-88
2022/04/22 02:32:04;;;;;;;5.22;2.28;;;7.80;67.60;;;;;;4097213;28;20031;-88
2022/04/22 02:34:05;;;;;;;10.07;2.22;;;7.70;67.80;;;;;;4076075;28;20051;-87
2022/04/22 02:36:08;;;;;;;5.60;2.28;;;7.70;68.00;;;;;;4105432;28;20031;-88
2022/04/22 02:38:09;;;;;;;6.72;2.22;;;7.70;68.20;;;;;;4091833;28;20432;-87
2022/04/22 02:40:10;;;;;;;3.88;1.70;;;7.70;68.20;;;;;;4105886;28;20023;-87
2022/04/22 02:46:50;;;;;;;6.25;2.28;;;7.70;68.10;;;;;;4088342;28;20384;-87
2022/04/22 02:48:51;;;;;;;7.35;2.10;;;7.60;68.10;;;;;;4102258;28;20554;-88
2022/04/22 02:50:52;;;;;;;4.35;2.28;;;7.60;68.10;;;;;;4105593;28;20030;-87
2022/04/22 02:52:53;;;;;;;3.95;2.10;;;7.50;68.20;;;;;;4091516;28;20241;-87
2022/04/22 02:54:54;;;;;;;5.85;2.30;;;7.50;68.10;;;;;;4090374;28;20032;-88
2022/04/22 02:56:54;;;;;;;5.10;1.77;;;7.50;68.30;;;;;;4090266;28;20503;-88
2022/04/22 02:58:56;;;;;;;10.45;2.13;;;7.50;68.30;;;;;;4105458;28;20030;-88
2022/04/22 03:00:56;;;;;;;6.35;2.17;;;7.40;68.60;;;;;;4091769;28;20027;-87
2022/04/22 03:02:57;;;;;;;5.90;2.22;;;7.30;68.60;;;;;;4088119;28;20023;-87
2022/04/22 03:04:58;;;;;;;8.40;1.98;;;7.30;68.50;;;;;;4090414;28;20028;-87
2022/04/22 03:06:59;;;;;;;5.15;2.03;;;7.30;68.30;;;;;;4088849;28;20158;-88
2022/04/22 03:08:59;;;;;;;3.75;1.95;;;7.40;68.60;;;;;;4085750;28;20039;-87
2022/04/22 03:11:00;;;;;;;3.92;2.38;;;7.30;68.80;;;;;;4104184;28;20042;-88
2022/04/22 03:13:01;;;;;;;5.97;1.80;;;7.20;68.90;;;;;;4100667;28;20035;-87
2022/04/22 03:15:03;;;;;;;5.35;2.20;;;7.20;68.60;;;;;;4092984;28;22345;-88
2022/04/22 03:17:05;;;;;;;5.13;2.45;;;7.20;68.80;;;;;;4103402;28;20023;-87
2022/04/22 03:19:06;;;;;;;4.68;2.38;;;7.10;68.90;;;;;;4093075;28;20039;-88
2022/04/22 03:21:08;;;;;;;4.40;2.20;;;7.10;69.10;;;;;;4093301;28;20063;-88
2022/04/22 03:23:08;;;;;;;6.97;2.20;;;7.20;69.10;;;;;;4091130;28;20479;-89
2022/04/22 03:25:09;;;;;;;6.53;2.00;;;7.00;68.90;;;;;;4091070;28;20031;-87
2022/04/22 03:27:10;;;;;;;6.75;2.28;;;7.00;68.80;;;;;;4091778;28;20024;-88
2022/04/22 03:29:10;;;;;;;5.65;2.20;;;7.00;68.90;;;;;;4091686;28;20566;-88
2022/04/22 03:31:11;;;;;;;7.13;2.55;;;7.00;69.00;;;;;;4100908;28;20070;-87
2022/04/22 03:33:12;;;;;;;5.38;2.70;;;7.10;69.50;;;;;;4086774;28;20039;-88
2022/04/22 03:35:13;;;;;;;5.53;2.17;;;7.00;69.40;;;;;;4104447;28;20062;-88
2022/04/22 03:37:14;;;;;;;7.00;2.25;;;7.00;69.10;;;;;;4104518;28;20023;-89
2022/04/22 03:39:15;;;;;;;5.13;2.25;;;7.00;69.20;;;;;;4096267;28;20031;-87
2022/04/22 03:41:15;;;;;;;5.30;2.45;;;7.00;69.10;;;;;;4111917;28;20043;-89
2022/04/22 03:43:16;;;;;;;4.15;2.00;;;7.00;68.90;;;;;;4092128;28;20039;-87
2022/04/22 03:45:17;;;;;;;7.93;2.30;;;7.00;69.00;;;;;;4100273;28;20118;-88
2022/04/22 03:47:19;;;;;;;5.85;2.50;;;7.10;69.40;;;;;;4101449;28;20035;-87
2022/04/22 03:49:20;;;;;;;5.35;2.47;;;7.00;69.40;;;;;;4088828;28;20035;-89
2022/04/22 03:51:20;;;;;;;6.05;2.58;;;6.90;69.20;;;;;;4087569;28;20595;-87
2022/04/22 03:53:21;;;;;;;6.47;2.47;;;7.00;69.40;;;;;;4088268;28;20071;-90
2022/04/22 03:55:22;;;;;;;4.07;2.08;;;7.00;69.20;;;;;;4085618;28;20031;-87
2022/04/22 03:59:41;;;;;;;10.07;2.58;;;6.90;69.00;;;;;;4084533;28;20041;-87
2022/04/22 04:01:43;;;;;;;3.55;2.20;;;7.00;69.20;;;;;;4086293;28;20047;-87
2022/04/22 04:03:44;;;;;;;5.53;2.45;;;6.90;69.40;;;;;;4082560;28;20035;-87
2022/04/22 04:05:48;;;;;;;5.32;2.20;;;7.00;69.30;;;;;;4091292;28;20049;-87
2022/04/22 04:07:48;;;;;;;7.28;2.40;;;6.90;69.70;;;;;;4101199;28;20105;-87
2022/04/22 04:16:44;;;;;;;3.17;2.30;;;6.90;69.50;;;;;;4088906;28;20030;-88
2022/04/22 04:18:44;;;;;;;4.22;2.28;;;6.90;69.60;;;;;;4081681;28;20492;-87
2022/04/22 04:23:17;;;;;;;4.40;2.17;;;6.90;69.70;;;;;;4098961;28;20213;-87
2022/04/22 04:25:18;;;;;;;5.15;2.20;;;6.90;69.80;;;;;;4097829;28;20023;-88
2022/04/22 04:27:19;;;;;;;5.97;2.28;;;7.00;69.90;;;;;;4066388;29;20039;-87
2022/04/22 04:29:20;;;;;;;7.97;2.50;;;6.90;69.60;;;;;;4107756;28;20027;-86
2022/04/22 04:31:21;;;;;;;5.43;2.00;;;6.90;69.70;;;;;;4092532;28;20034;-87
2022/04/22 04:33:22;;;;;;;3.45;2.00;;;7.00;69.80;;;;;;4085556;28;20063;-86
2022/04/22 04:35:23;;;;;;;4.30;2.03;;;7.00;69.80;;;;;;4083717;28;20035;-87
2022/04/22 04:37:24;;;;;;;5.97;2.05;;;7.00;70.00;;;;;;4089369;28;20027;-88
2022/04/22 04:39:24;;;;;;;5.88;2.13;;;7.00;70.00;;;;;;4088976;28;20513;-87
2022/04/22 04:41:25;;;;;;;3.40;2.20;;;7.00;69.90;;;;;;4081376;28;20035;-86
2022/04/22 04:43:26;;;;;;;6.05;2.45;;;7.10;69.80;;;;;;4088554;28;20042;-87
2022/04/22 04:45:28;;;;;;;3.20;2.13;;;7.20;69.90;;;;;;4082621;28;20027;-87
2022/04/22 04:47:29;;;;;;;6.35;2.10;;;7.20;69.50;;;;;;4098214;28;20073;-86
2022/04/22 04:49:30;;;;;;;3.25;1.75;;;7.10;69.40;;;;;;4106781;28;20103;-88
2022/04/22 04:51:30;;;;;;;7.18;2.30;;;7.10;68.90;;;;;;4098352;28;20051;-88
2022/04/22 04:53:31;;;;;;;2.65;1.65;;;7.20;68.90;;;;;;4081790;28;20039;-87
2022/04/22 04:55:32;;;;;;;7.40;1.90;;;7.20;68.70;;;;;;4084217;28;20468;-88
2022/04/22 04:57:33;;;;;;;7.90;2.13;;;7.30;68.60;;;;;;4094803;28;20030;-89
2022/04/22 04:59:34;;;;;;;6.10;2.50;;;7.20;68.50;;;;;;4089041;28;20110;-87
2022/04/22 05:01:35;;;;;;;8.85;2.35;;;7.30;68.40;;;;;;4091360;28;20037;-88
2022/04/22 05:03:36;;;;;;;8.82;1.95;;;7.30;68.10;;;;;;4090353;28;20032;-87
2022/04/22 05:05:36;;;;;;;6.22;2.25;;;7.40;68.00;;;;;;4108287;28;20038;-88
2022/04/22 05:07:59;;;;;;;4.10;2.05;;;7.40;67.90;;;;;;4104809;28;20142;-88
2022/04/22 05:09:59;;;;;;;5.53;2.15;;;7.40;67.80;;;;;;4089529;28;20031;-88
2022/04/22 05:12:00;;;;;;;10.70;2.10;;;7.40;67.90;;;;;;4074068;29;20023;-88
2022/04/22 05:14:02;;;;;;;7.50;1.92;;;7.50;67.90;;;;;;4091110;28;20042;-87
2022/04/22 05:16:03;;;;;;;3.10;1.75;;;7.50;67.80;;;;;;4085159;28;20020;-88
2022/04/22 05:18:04;;;;;;;4.00;1.80;;;7.50;67.20;;;;;;4086039;28;20675;-87
2022/04/22 05:20:05;;;;;;;5.05;1.95;;;7.60;67.10;;;;;;4108465;28;20041;-87
2022/04/22 05:22:06;;;;;;;6.30;1.70;;;7.60;67.40;;;;;;4095992;28;20027;-88
2022/04/22 05:24:07;;;;;;;3.78;1.70;;;7.60;66.10;;;;;;4095030;28;20461;-88
2022/04/22 05:26:08;;;;;;;3.80;1.90;;;7.60;65.80;;;;;;4095705;28;20047;-87
2022/04/22 05:28:08;;;;;;;2.80;1.60;;;7.60;65.40;;;;;;4115369;28;20154;-88
2022/04/22 05:32:36;;;;;;;4.78;1.90;;;7.70;65.20;;;;;;4099026;28;20027;-88
2022/04/22 05:34:37;;;;;;;6.03;1.63;;;7.80;65.20;;;;;;4093947;28;20050;-88
2022/04/22 05:36:37;;;;;;;3.78;1.35;;;7.80;65.00;;;;;;4094117;28;20028;-88
2022/04/22 05:38:38;;;;;;;5.32;1.60;;;7.90;65.20;;;;;;4098165;28;20065;-87
2022/04/22 05:40:39;;;;;;;3.20;1.70;;;7.90;64.60;;;;;;4097016;28;20086;-87
2022/04/22 05:42:40;;;;;;;4.07;1.65;;;7.90;64.60;;;;;;4093744;28;20039;-89
2022/04/22 05:44:40;;;;;;;6.15;1.50;;;8.00;64.10;;;;;;4089880;28;20031;-89
2022/04/22 05:46:41;;;;;;;4.10;1.83;;;8.10;64.10;;;;;;4099407;28;20443;-88
2022/04/22 05:48:43;;;;;;;3.63;1.25;;;8.00;63.20;;;;;;4098650;28;20035;-88
2022/04/22 05:50:43;;;;;;;5.22;1.60;;;8.10;63.30;;;;;;4099281;28;20217;-89
2022/04/22 05:52:45;;;;;;;3.90;1.45;;;8.10;63.00;;;;;;4110467;28;20043;-89
2022/04/22 05:54:46;;;;;;;4.82;1.40;;;8.20;63.20;;;;;;4111708;28;20050;-90
2022/04/22 05:56:47;;;;;;;2.25;1.20;;;8.30;63.10;;;;;;4092012;28;20028;-89
2022/04/22 05:58:47;;;;;;;3.55;1.30;;;8.20;63.20;;;;;;4095098;28;20034;-89
2022/04/22 06:00:51;;;;;;;3.30;1.50;;;8.40;62.80;;;;;;4089549;28;20101;-87
2022/04/22 06:02:53;;;;;;;5.45;1.70;;;8.30;62.40;;;;;;4109810;28;20475;-88
2022/04/22 06:04:53;;;;;;;3.30;1.45;;;8.40;61.80;;;;;;4095878;28;20487;-89
2022/04/22 06:06:54;;;;;;;4.95;1.73;;;8.50;61.80;;;;;;4088860;28;20193;-89
2022/04/22 06:11:16;;;;;;;3.13;1.33;;;8.50;61.40;;;;;;4095029;28;20027;-89
2022/04/22 06:13:17;;;;;;;4.57;1.70;;;8.40;61.60;;;;;;4094145;28;20113;-89
2022/04/22 06:15:19;;;;;;;2.30;1.50;;;8.50;61.20;;;;;;4114357;28;20027;-90
2022/04/22 06:17:20;;;;;;;5.05;1.63;;;8.50;60.80;;;;;;4101912;28;20031;-88
2022/04/22 06:19:21;;;;;;;4.10;1.48;;;8.50;60.90;;;;;;4093764;28;20092;-88
2022/04/22 06:21:21;;;;;;;5.10;1.58;;;8.60;60.80;;;;;;4092013;28;20027;-88
2022/04/22 06:23:22;;;;;;;3.45;1.55;;;8.60;60.10;;;;;;4104415;28;20034;-88
2022/04/22 06:25:23;;;;;;;2.90;1.30;;;8.60;59.90;;;;;;4090274;28;20028;-88
2022/04/22 06:27:29;;;;;;;7.13;1.48;;;8.70;60.20;;;;;;4096351;28;20035;-89
2022/04/22 06:29:30;;;;;;;5.03;1.58;;;8.70;60.20;;;;;;4089753;28;20393;-88
2022/04/22 06:31:30;;;;;;;3.30;1.40;;;8.70;60.00;;;;;;4094350;28;20034;-89
2022/04/22 06:33:31;;;;;;;3.95;1.63;;;8.80;59.90;;;;;;4093959;28;20039;-88
2022/04/22 06:35:32;;;;;;;3.67;1.30;;;8.70;59.00;;;;;;4094762;28;20027;-88
2022/04/22 06:37:43;;;;;;;3.45;1.70;;;8.80;59.40;;;;;;4092866;28;20035;-89
2022/04/22 06:46:43;;;;;;;4.53;1.52;;;9.10;59.50;;;;;;4109394;28;20042;-89
2022/04/22 06:48:44;;;;;;;2.90;1.30;;;9.10;59.00;;;;;;4093609;28;20035;-88
2022/04/22 06:50:47;;;;;;;4.63;1.50;;;9.20;58.80;;;;;;4094604;28;20065;-89
2022/04/22 06:52:48;;;;;;;5.60;1.60;;;9.20;58.50;;;;;;4089441;28;20167;-89
2022/04/22 06:54:49;;;;;;;4.60;1.33;;;9.20;58.30;;;;;;4108232;28;20072;-88
2022/04/22 06:56:50;;;;;;;2.42;1.25;;;9.20;58.10;;;;;;4093892;28;20033;-89
2022/04/22 06:58:52;;;;;;;4.28;1.42;;;9.10;58.50;;;;;;4095208;28;20063;-89
2022/04/22 07:00:53;;;;;;;3.92;1.42;;;9.20;58.50;;;;;;4093602;28;20030;-89
2022/04/22 07:02:54;;;;;;;2.97;1.30;;;9.20;58.20;;;;;;4091759;28;20035;-88
2022/04/22 07:04:54;;;;;;;4.35;1.63;;;9.20;58.00;;;;;;4109447;28;20039;-89
2022/04/22 07:06:55;;;;;;;4.90;1.80;;;9.30;58.20;;;;;;4073409;29;20051;-89
2022/04/22 07:08:56;;;;;;;4.03;1.73;;;9.30;58.50;;;;;;4108635;28;20058;-88
2022/04/22 07:11:01;;;;;;;3.83;1.50;;;9.30;58.50;;;;;;4092920;28;20035;-89
2022/04/22 07:13:04;;;;;;;3.92;1.50;;;9.40;58.70;;;;;;4077319;29;20480;-90
2022/04/22 07:15:08;;;;;;;3.10;1.38;;;9.40;58.20;;;;;;4094041;28;20034;-89
2022/04/22 07:17:10;;;;;;;3.45;1.38;;;9.40;57.90;;;;;;4091227;28;20102;-90
2022/04/22 07:19:11;;;;;;;4.55;1.40;;;9.50;57.90;;;;;;4105963;28;22093;-89
2022/04/22 07:21:11;;;;;;;1.85;1.25;;;9.50;58.20;;;;;;4107281;28;20115;-89
2022/04/22 07:23:14;;;;;;;6.55;2.00;;;9.50;58.50;;;;;;4087648;28;20032;-90
2022/04/22 07:25:15;;;;;;;3.13;1.30;;;9.50;58.70;;;;;;4089677;28;20031;-89
2022/04/22 07:27:18;;;;;;;3.60;1.60;;;9.60;58.20;;;;;;4103903;28;20039;-88
2022/04/22 07:29:21;;;;;;;3.67;1.90;;;9.60;58.40;;;;;;4106296;28;20546;-90
2022/04/22 07:31:22;;;;;;;2.33;1.70;;;9.70;58.80;;;;;;4092029;28;20596;-89
2022/04/22 07:33:23;;;;;;;3.67;1.80;;;9.70;59.00;;;;;;4074514;29;20063;-87
2022/04/22 07:35:24;;;;;;;8.05;2.00;;;9.70;58.60;;;;;;4108159;28;20102;-88
2022/04/22 07:37:24;;;;;;;4.85;1.60;;;9.70;58.50;;;;;;4091293;28;20038;-89
2022/04/22 07:39:25;;;;;;;3.30;2.10;;;9.70;58.90;;;;;;4093838;28;20480;-88
2022/04/22 07:41:28;;;;;;;5.05;1.77;;;9.70;59.30;;;;;;4088427;28;20055;-90
2022/04/22 07:48:09;;;;;;;5.63;2.00;;;9.80;58.50;;;;;;4093896;28;20135;-89
2022/04/22 07:50:14;;;;;;;3.55;1.95;;;9.80;57.80;;;;;;4095713;28;20024;-89
2022/04/22 07:52:14;;;;;;;6.45;2.10;;;9.80;57.80;;;;;;4092123;28;20082;-89
2022/04/22 07:54:15;;;;;;;4.28;1.73;;;9.80;57.70;;;;;;4093430;28;20459;-88
2022/04/22 07:56:16;;;;;;;4.90;1.90;;;9.80;58.20;;;;;;4095494;28;20043;-89
2022/04/22 07:58:17;;;;;;;8.93;1.67;;;9.90;58.40;;;;;;4101488;28;20035;-89
2022/04/22 08:00:18;;;;;;;7.70;1.92;;;10.10;58.70;;;;;;4114129;28;20035;-89
2022/04/22 08:02:20;;;;;;;4.10;1.65;;;10.10;58.80;;;;;;4086247;28;20031;-89
2022/04/22 08:04:20;;;;;;;9.52;2.38;;;10.10;58.10;;;;;;4093247;28;20019;-89
2022/04/22 08:06:21;;;;;;;6.18;1.70;;;10.10;58.40;;;;;;4106766;28;20035;-89
2022/04/22 08:08:22;;;;;;;3.40;1.65;;;10.20;58.50;;;;;;4093494;28;20024;-88
2022/04/22 08:10:23;;;;;;;3.65;1.70;;;10.30;58.50;;;;;;4091590;28;20027;-88
2022/04/22 08:12:23;;;;;;;4.60;1.95;;;10.20;57.90;;;;;;4093133;28;20031;-90
2022/04/22 08:14:26;;;;;;;4.35;1.75;;;10.30;57.80;;;;;;4087027;28;20044;-89
2022/04/22 08:16:27;;;;;;;4.43;2.00;;;10.20;57.60;;;;;;4109459;28;20058;-86
2022/04/22 08:18:28;;;;;;;3.35;1.60;;;10.30;58.20;;;;;;4084689;28;20039;-88
2022/04/22 08:20:33;;;;;;;4.72;1.83;;;10.30;58.20;;;;;;4092481;28;20041;-88
2022/04/22 08:22:34;;;;;;;9.10;1.95;;;10.30;58.00;;;;;;4106264;28;20054;-90
2022/04/22 08:24:35;;;;;;;3.10;1.67;;;10.40;58.30;;;;;;4086875;28;20024;-89
2022/04/22 08:26:35;;;;;;;5.05;2.15;;;10.50;58.00;;;;;;4089776;28;20046;-90
2022/04/22 08:28:36;;;;;;;6.07;2.20;;;10.50;58.30;;;;;;4093974;28;20560;-89
2022/04/22 08:30:37;;;;;;;7.53;2.42;;;10.60;58.20;;;;;;4088740;28;20035;-89
2022/04/22 08:32:37;;;;;;;8.45;2.08;;;10.70;58.30;;;;;;4086125;28;20680;-88
2022/04/22 08:34:38;;;;;;;8.68;2.13;;;10.70;57.60;;;;;;4092554;28;20412;-90
2022/04/22 08:36:39;;;;;;;6.30;2.05;;;10.80;57.90;;;;;;4090659;28;20028;-89
2022/04/22 08:38:40;;;;;;;3.05;1.52;;;10.70;57.10;;;;;;4095584;28;20061;-90
2022/04/22 08:40:42;;;;;;;5.55;2.28;;;10.60;57.20;;;;;;4097726;28;20497;-89
2022/04/22 08:42:45;;;;;;;4.68;2.03;;;10.60;57.30;;;;;;4092577;28;20499;-90
2022/04/22 08:44:46;;;;;;;3.72;1.80;;;10.50;57.60;;;;;;4092086;28;20182;-89
2022/04/22 08:51:27;;;;;;;5.80;2.17;;;10.70;58.00;;;;;;4096269;28;20035;-90
2022/04/22 08:53:30;;;;;;;6.20;1.90;;;10.50;57.40;;;;;;4094074;28;20051;-89
2022/04/22 08:55:34;;;;;;;4.53;2.15;;;10.60;58.00;;;;;;4110979;28;20030;-89
2022/04/22 08:57:34;;;;;;;4.00;1.77;;;10.60;57.80;;;;;;4097171;28;20392;-90
2022/04/22 08:59:37;;;;;;;7.05;1.90;;;10.60;57.70;;;;;;4097187;28;20487;-90
2022/04/22 09:01:38;;;;;;;8.95;1.92;;;10.50;57.30;;;;;;4105040;28;20110;-89
2022/04/22 09:03:39;;;;;;;4.75;1.75;;;10.50;57.20;;;;;;4091236;28;20050;-90
2022/04/22 09:05:40;;;;;;;4.75;2.22;;;10.40;57.70;;;;;;4097033;28;20026;-89
2022/04/22 09:07:44;;;;;;;5.25;1.80;;;10.50;58.10;;;;;;4093271;28;20038;-90
2022/04/22 09:09:51;;;;;;;11.15;2.35;;;10.40;58.60;;;;;;4093831;28;20444;-89
2022/04/22 09:11:52;;;;;;;8.40;1.90;;;10.60;59.00;;;;;;4090238;28;20035;-89
2022/04/22 09:13:53;;;;;;;5.60;2.00;;;10.60;58.40;;;;;;4091399;28;20118;-89
2022/04/22 09:15:55;;;;;;;7.57;1.92;;;10.60;57.80;;;;;;4093676;28;20131;-91
2022/04/22 09:18:08;;;;;;;10.30;1.88;;;10.60;57.90;;;;;;4107462;28;20030;-89
2022/04/22 09:20:13;;;;;;;4.15;2.17;;;10.70;58.70;;;;;;4109228;28;20023;-90
2022/04/22 09:22:25;;;;;;;3.92;2.22;;;10.70;58.20;;;;;;4096298;28;20118;-92
2022/04/22 09:24:25;;;;;;;5.25;2.38;;;10.60;58.00;;;;;;4106870;28;20130;-90
2022/04/22 09:26:26;;;;;;;5.65;2.60;;;10.40;58.10;;;;;;4094576;28;20395;-90
2022/04/22 09:28:27;;;;;;;6.25;1.98;;;10.50;59.20;;;;;;4094351;28;20035;-88
2022/04/22 09:30:28;;;;;;;13.40;3.05;;;10.60;60.10;;;;;;4095315;28;20034;-91
2022/04/22 09:32:34;;;;;;;9.38;2.13;;;10.60;59.70;;;;;;4097285;28;20034;-87
2022/04/22 09:34:42;;;;;;;4.78;2.40;;;10.70;58.70;;;;;;4096641;28;20042;-88
2022/04/22 09:43:55;;;;;;;5.85;2.30;;;10.70;57.80;;;;;;4108611;28;20490;-88
2022/04/22 09:45:55;;;;;;;6.63;3.15;;;10.70;58.80;;;;;;4096695;28;20039;-91
2022/04/22 09:48:00;;;;;;;9.85;3.17;;;10.70;59.20;;;;;;4105764;28;20039;-87
2022/04/22 09:50:12;;;;;;;9.43;3.20;;;10.70;58.40;;;;;;4090616;28;20031;-87
2022/04/22 09:52:12;;;;;;;9.13;3.08;;;10.70;58.60;;;;;;4094690;28;20475;-89
2022/04/22 09:54:17;;;;;;;5.68;2.55;;;10.80;58.50;;;;;;4093537;28;20207;-90
2022/04/22 09:56:19;;;;;;;13.35;3.55;;;10.70;58.10;;;;;;4108962;28;20066;-91
2022/04/22 09:58:25;;;;;;;8.57;3.15;;;10.60;58.10;;;;;;4092376;28;20051;-90
2022/04/22 10:00:29;;;;;;;10.13;2.95;;;10.50;58.60;;;;;;4098857;28;20093;-89
2022/04/22 10:02:30;;;;;;;;;;;10.30;59.20;;;;;;4093933;28;20043;-91
2022/04/22 10:04:34;;;;;;;8.52;2.83;;;10.30;59.60;;;;;;4108547;28;20560;-90
2022/04/22 10:06:35;;;;;;;7.32;3.05;;;10.20;60.30;;;;;;4113731;28;20037;-92
2022/04/22 10:08:39;;;;;;;10.40;3.22;;;10.20;60.60;;;;;;4091470;28;20027;-90
2022/04/22 10:10:42;;;;;;;13.25;3.40;;;10.00;61.30;;;;;;4091082;28;20154;-89
2022/04/22 10:12:43;;;;;;;7.70;2.88;;;10.10;61.70;;;;;;4095022;28;20023;-90
2022/04/22 10:14:45;;;;;;;10.00;2.83;;;10.10;62.00;;;;;;4088416;28;20074;-91
2022/04/22 10:16:46;;;;;;;11.27;2.70;;;10.20;63.00;;;;;;4090938;28;20408;-90
2022/04/22 10:18:48;;;;;;;9.40;2.85;;;10.30;62.20;;;;;;4097391;28;20030;-90
2022/04/22 10:20:50;;;;;;;13.20;3.20;;;10.20;61.90;;;;;;4094778;28;20061;-91
2022/04/22 10:22:50;;;;;;;10.07;3.25;;;10.20;61.30;;;;;;4094720;28;20027;-90
2022/04/22 10:24:52;;;;;;;11.07;3.47;;;10.20;62.40;;;;;;4096011;28;20094;-90
2022/04/22 10:26:53;;;;;;;11.48;3.10;;;10.20;61.90;;;;;;4094368;28;20130;-89
2022/04/22 10:28:55;;;;;;;19.20;3.42;;;10.20;62.00;;;;;;4095799;28;20049;-90
2022/04/22 10:31:00;;;;;;;11.80;2.72;;;10.20;62.30;;;;;;4111021;28;20060;-90
2022/04/22 10:33:02;;;;;;;12.93;3.40;;;10.20;61.90;;;;;;4093320;28;20035;-88
2022/04/22 10:35:04;;;;;;;9.48;3.30;;;10.30;62.70;;;;;;4106296;28;20031;-90
2022/04/22 10:37:15;;;;;;;15.15;3.60;;;10.30;62.70;;;;;;4111636;28;20054;-93
2022/04/22 10:39:48;;;;;;;11.02;3.47;;;10.30;62.80;;;;;;4107531;28;20022;-90
2022/04/22 10:41:50;;;;;;;10.82;3.65;;;10.40;63.10;;;;;;4079123;29;20068;-91
2022/04/22 10:48:32;;;;;;;13.57;3.42;;;10.40;62.40;;;;;;4080940;29;20039;-89
2022/04/22 10:50:33;;;;;;;10.30;2.72;;;10.40;62.40;;;;;;4065018;29;20118;-89
2022/04/22 10:52:54;;;;;;;9.38;3.58;;;10.40;62.20;;;;;;4073225;29;20058;-89
2022/04/22 10:54:55;;;;;;;7.95;3.25;;;10.40;62.00;;;;;;4072713;29;20067;-90
2022/04/22 10:57:18;;;;;;;10.40;3.55;;;10.40;61.90;;;;;;4076883;29;20035;-88
2022/04/22 10:59:24;;;;;;;9.38;4.18;;;10.40;61.80;;;;;;4042410;29;20032;-90
2022/04/22 11:01:31;;;;;;;8.85;3.58;;;10.40;62.40;;;;;;4071543;29;20506;-88
2022/04/22 11:03:36;;;;;;;12.43;3.85;;;10.40;63.20;;;;;;4055494;29;20032;-89
2022/04/22 11:05:37;;;;;;;7.10;3.03;;;10.40;62.90;;;;;;4076161;29;20050;-90
2022/04/22 11:07:50;;;;;;;24.17;4.20;;;10.40;63.60;;;;;;4074895;29;20051;-89
2022/04/22 11:10:02;;;;;;;12.60;3.65;;;10.40;62.90;;;;;;4062096;29;20083;-90
2022/04/22 11:12:03;;;;;;;22.00;3.53;;;10.50;63.20;;;;;;4059456;29;20044;-89
2022/04/22 11:14:18;;;;;;;12.35;3.50;;;10.50;62.50;;;;;;4055971;29;20120;-88
2022/04/22 11:16:29;;;;;;;13.45;3.72;;;10.60;63.70;;;;;;4044220;29;20036;-89
2022/04/22 11:18:30;;;;;;;10.15;4.10;;;10.70;62.80;;;;;;4105790;28;20031;-89
2022/04/22 11:20:34;;;;;;;6.75;3.60;;;10.80;63.90;;;;;;4092231;28;20031;-91
2022/04/22 11:22:58;;;;;;;10.88;3.55;;;10.80;62.70;;;;;;4116443;28;20101;-89
2022/04/22 11:25:00;;;;;;;7.10;3.40;;;10.90;62.70;;;;;;4097029;28;20051;-90
2022/04/22 11:27:10;;;;;;;14.27;3.80;;;11.00;62.90;;;;;;4105906;28;20054;-89
2022/04/22 11:29:12;;;;;;;10.25;3.97;;;11.00;63.50;;;;;;4090210;28;20043;-89
2022/04/22 11:31:14;;;;;;;10.80;4.43;;;11.10;63.30;;;;;;4107058;28;20034;-90
2022/04/22 11:33:23;;;;;;;14.65;3.60;;;11.10;62.50;;;;;;4089840;28;20412;-89
2022/04/22 11:35:32;;;;;;;14.60;4.25;;;11.00;61.90;;;;;;4092728;28;20094;-90
2022/04/22 11:37:34;;;;;;;9.77;4.20;;;11.10;61.50;;;;;;4095664;28;20121;-89